sensor_id;sensor_type;location;lat;lon;timestamp;temperature;humidity
75489;HTU21D;64069;46.396;48.102;2023-07-24T00:00:28;21.87;93.12
75489;HTU21D;64069;46.396;48.102;2023-07-24T00:03:00;21.85;93.17
75489;HTU21D;64069;46.396;48.102;2023-07-24T00:05:32;21.82;93.29
75489;HTU21D;64069;46.396;48.102;2023-07-24T00:07:58;21.80;93.40
75489;HTU21D;64069;46.396;48.102;2023-07-24T00:10:30;21.74;93.49
75489;HTU21D;64069;46.396;48.102;2023-07-24T00:13:02;21.70;93.52
75489;HTU21D;64069;46.396;48.102;2023-07-24T00:15:28;21.72;93.56
75489;HTU21D;64069;46.396;48.102;2023-07-24T00:18:01;21.74;93.56
75489;HTU21D;64069;46.396;48.102;2023-07-24T00:20:33;21.75;93.55
75489;HTU21D;64069;46.396;48.102;2023-07-24T00:22:59;21.78;93.52
75489;HTU21D;64069;46.396;48.102;2023-07-24T00:25:31;21.80;93.51
75489;HTU21D;64069;46.396;48.102;2023-07-24T00:28:10;21.79;93.64
75489;HTU21D;64069;46.396;48.102;2023-07-24T00:30:42;21.75;93.60
75489;HTU21D;64069;46.396;48.102;2023-07-24T00:33:08;21.72;93.71
75489;HTU21D;64069;46.396;48.102;2023-07-24T00:35:41;21.66;93.78
75489;HTU21D;64069;46.396;48.102;2023-07-24T00:38:14;21.63;93.88
75489;HTU21D;64069;46.396;48.102;2023-07-24T00:40:40;21.57;94.00
75489;HTU21D;64069;46.396;48.102;2023-07-24T00:43:13;21.50;94.18
75489;HTU21D;64069;46.396;48.102;2023-07-24T00:45:46;21.45;94.35
75489;HTU21D;64069;46.396;48.102;2023-07-24T00:48:14;21.44;94.32
75489;HTU21D;64069;46.396;48.102;2023-07-24T00:50:47;21.45;94.33
75489;HTU21D;64069;46.396;48.102;2023-07-24T00:53:15;21.47;94.30
75489;HTU21D;64069;46.396;48.102;2023-07-24T00:55:48;21.46;94.23
75489;HTU21D;64069;46.396;48.102;2023-07-24T00:58:21;21.47;94.26
75489;HTU21D;64069;46.396;48.102;2023-07-24T01:00:47;21.46;94.31
75489;HTU21D;64069;46.396;48.102;2023-07-24T01:03:23;21.44;94.42
75489;HTU21D;64069;46.396;48.102;2023-07-24T01:06:03;21.45;94.46
75489;HTU21D;64069;46.396;48.102;2023-07-24T01:08:29;21.44;94.46
75489;HTU21D;64069;46.396;48.102;2023-07-24T01:11:30;21.44;94.61
75489;HTU21D;64069;46.396;48.102;2023-07-24T01:14:17;21.39;94.50
75489;HTU21D;64069;46.396;48.102;2023-07-24T01:16:54;21.36;94.62
75489;HTU21D;64069;46.396;48.102;2023-07-24T01:19:41;21.42;94.67
75489;HTU21D;64069;46.396;48.102;2023-07-24T01:27:50;21.31;94.52
75489;HTU21D;64069;46.396;48.102;2023-07-24T01:30:29;21.29;94.59
75489;HTU21D;64069;46.396;48.102;2023-07-24T01:32:55;21.30;94.60
75489;HTU21D;64069;46.396;48.102;2023-07-24T01:35:27;21.31;94.61
75489;HTU21D;64069;46.396;48.102;2023-07-24T01:37:56;21.33;94.67
75489;HTU21D;64069;46.396;48.102;2023-07-24T01:40:29;21.38;94.64
75489;HTU21D;64069;46.396;48.102;2023-07-24T01:43:02;21.44;94.56
75489;HTU21D;64069;46.396;48.102;2023-07-24T01:45:28;21.47;94.48
75489;HTU21D;64069;46.396;48.102;2023-07-24T01:48:00;21.53;94.35
75489;HTU21D;64069;46.396;48.102;2023-07-24T01:50:26;21.63;94.28
75489;HTU21D;64069;46.396;48.102;2023-07-24T01:52:59;21.72;94.10
75489;HTU21D;64069;46.396;48.102;2023-07-24T01:55:25;21.83;93.93
75489;HTU21D;64069;46.396;48.102;2023-07-24T01:57:57;22.01;93.62
75489;HTU21D;64069;46.396;48.102;2023-07-24T02:00:29;22.32;93.11
75489;HTU21D;64069;46.396;48.102;2023-07-24T02:02:57;22.61;92.40
75489;HTU21D;64069;46.396;48.102;2023-07-24T02:05:30;22.90;91.78
75489;HTU21D;64069;46.396;48.102;2023-07-24T02:07:56;23.21;91.06
75489;HTU21D;64069;46.396;48.102;2023-07-24T02:10:29;23.56;90.15
75489;HTU21D;64069;46.396;48.102;2023-07-24T02:12:55;23.82;89.32
75489;HTU21D;64069;46.396;48.102;2023-07-24T02:15:27;23.95;88.68
75489;HTU21D;64069;46.396;48.102;2023-07-24T02:17:59;23.97;88.43
75489;HTU21D;64069;46.396;48.102;2023-07-24T02:20:25;23.95;88.41
75489;HTU21D;64069;46.396;48.102;2023-07-24T02:22:57;23.88;88.51
75489;HTU21D;64069;46.396;48.102;2023-07-24T02:25:29;23.81;88.57
75489;HTU21D;64069;46.396;48.102;2023-07-24T02:27:55;23.72;88.63
75489;HTU21D;64069;46.396;48.102;2023-07-24T02:30:28;23.69;88.69
75489;HTU21D;64069;46.396;48.102;2023-07-24T02:33:00;23.75;88.44
75489;HTU21D;64069;46.396;48.102;2023-07-24T02:35:26;23.83;88.21
75489;HTU21D;64069;46.396;48.102;2023-07-24T02:37:58;24.02;87.79
75489;HTU21D;64069;46.396;48.102;2023-07-24T02:40:31;24.36;86.98
75489;HTU21D;64069;46.396;48.102;2023-07-24T02:42:57;24.83;85.91
75489;HTU21D;64069;46.396;48.102;2023-07-24T02:45:37;25.17;84.87
75489;HTU21D;64069;46.396;48.102;2023-07-24T02:48:10;25.25;84.58
75489;HTU21D;64069;46.396;48.102;2023-07-24T02:50:42;25.24;84.73
75489;HTU21D;64069;46.396;48.102;2023-07-24T02:53:08;25.40;84.46
75489;HTU21D;64069;46.396;48.102;2023-07-24T02:55:43;25.63;83.96
75489;HTU21D;64069;46.396;48.102;2023-07-24T02:58:15;25.78;83.54
75489;HTU21D;64069;46.396;48.102;2023-07-24T03:00:41;25.83;83.09
75489;HTU21D;64069;46.396;48.102;2023-07-24T03:03:13;25.86;82.91
75489;HTU21D;64069;46.396;48.102;2023-07-24T03:05:45;25.97;82.49
75489;HTU21D;64069;46.396;48.102;2023-07-24T03:08:11;25.87;82.38
75489;HTU21D;64069;46.396;48.102;2023-07-24T03:10:43;25.82;82.08
75489;HTU21D;64069;46.396;48.102;2023-07-24T03:13:15;25.98;81.39
75489;HTU21D;64069;46.396;48.102;2023-07-24T03:15:41;26.28;80.71
75489;HTU21D;64069;46.396;48.102;2023-07-24T03:18:13;26.77;79.33
75489;HTU21D;64069;46.396;48.102;2023-07-24T03:20:46;27.30;77.82
75489;HTU21D;64069;46.396;48.102;2023-07-24T03:23:12;27.83;76.22
75489;HTU21D;64069;46.396;48.102;2023-07-24T03:25:41;28.25;75.07
75489;HTU21D;64069;46.396;48.102;2023-07-24T03:28:07;28.45;74.41
75489;HTU21D;64069;46.396;48.102;2023-07-24T03:30:33;28.72;73.97
75489;HTU21D;64069;46.396;48.102;2023-07-24T03:32:59;29.01;73.23
75489;HTU21D;64069;46.396;48.102;2023-07-24T03:35:26;29.24;72.40
75489;HTU21D;64069;46.396;48.102;2023-07-24T03:37:53;29.48;71.54
75489;HTU21D;64069;46.396;48.102;2023-07-24T03:40:19;29.75;70.72
75489;HTU21D;64069;46.396;48.102;2023-07-24T03:42:45;29.96;69.56
75489;HTU21D;64069;46.396;48.102;2023-07-24T03:45:11;30.16;69.10
75489;HTU21D;64069;46.396;48.102;2023-07-24T03:47:37;30.45;68.27
75489;HTU21D;64069;46.396;48.102;2023-07-24T03:50:04;30.68;67.31
75489;HTU21D;64069;46.396;48.102;2023-07-24T03:52:30;30.90;66.46
75489;HTU21D;64069;46.396;48.102;2023-07-24T03:54:56;31.11;65.78
75489;HTU21D;64069;46.396;48.102;2023-07-24T03:57:26;31.26;66.67
75489;HTU21D;64069;46.396;48.102;2023-07-24T03:59:52;31.42;65.08
75489;HTU21D;64069;46.396;48.102;2023-07-24T04:02:18;31.46;64.30
75489;HTU21D;64069;46.396;48.102;2023-07-24T04:04:44;31.63;63.67
75489;HTU21D;64069;46.396;48.102;2023-07-24T04:07:13;31.83;63.13
75489;HTU21D;64069;46.396;48.102;2023-07-24T04:09:39;32.03;62.33
75489;HTU21D;64069;46.396;48.102;2023-07-24T04:12:05;32.16;61.66
75489;HTU21D;64069;46.396;48.102;2023-07-24T04:14:31;32.20;61.13
75489;HTU21D;64069;46.396;48.102;2023-07-24T04:16:57;32.18;60.71
75489;HTU21D;64069;46.396;48.102;2023-07-24T04:19:23;31.99;60.44
75489;HTU21D;64069;46.396;48.102;2023-07-24T04:21:49;32.00;59.94
75489;HTU21D;64069;46.396;48.102;2023-07-24T04:24:15;32.11;59.44
75489;HTU21D;64069;46.396;48.102;2023-07-24T04:26:41;32.29;58.09
75489;HTU21D;64069;46.396;48.102;2023-07-24T04:29:08;32.52;57.59
75489;HTU21D;64069;46.396;48.102;2023-07-24T04:31:34;32.79;56.79
75489;HTU21D;64069;46.396;48.102;2023-07-24T04:34:00;32.99;55.68
75489;HTU21D;64069;46.396;48.102;2023-07-24T04:36:25;33.14;55.06
75489;HTU21D;64069;46.396;48.102;2023-07-24T04:38:55;33.41;54.38
75489;HTU21D;64069;46.396;48.102;2023-07-24T04:41:20;33.72;53.48
75489;HTU21D;64069;46.396;48.102;2023-07-24T04:43:46;33.90;52.40
75489;HTU21D;64069;46.396;48.102;2023-07-24T04:46:12;33.91;52.14
75489;HTU21D;64069;46.396;48.102;2023-07-24T04:48:38;34.16;51.30
75489;HTU21D;64069;46.396;48.102;2023-07-24T04:51:04;34.45;50.21
75489;HTU21D;64069;46.396;48.102;2023-07-24T04:53:33;34.57;49.76
75489;HTU21D;64069;46.396;48.102;2023-07-24T04:55:59;34.38;50.10
75489;HTU21D;64069;46.396;48.102;2023-07-24T04:58:25;34.11;50.65
75489;HTU21D;64069;46.396;48.102;2023-07-24T05:00:51;33.81;50.92
75489;HTU21D;64069;46.396;48.102;2023-07-24T05:03:17;33.68;50.85
75489;HTU21D;64069;46.396;48.102;2023-07-24T05:05:43;33.68;50.77
75489;HTU21D;64069;46.396;48.102;2023-07-24T05:08:17;33.92;50.16
75489;HTU21D;64069;46.396;48.102;2023-07-24T05:10:43;34.12;49.76
75489;HTU21D;64069;46.396;48.102;2023-07-24T05:13:09;34.17;48.80
75489;HTU21D;64069;46.396;48.102;2023-07-24T05:15:34;34.07;48.95
75489;HTU21D;64069;46.396;48.102;2023-07-24T05:18:00;33.94;49.61
75489;HTU21D;64069;46.396;48.102;2023-07-24T05:20:26;33.99;49.63
75489;HTU21D;64069;46.396;48.102;2023-07-24T05:22:56;34.00;49.33
75489;HTU21D;64069;46.396;48.102;2023-07-24T05:25:22;33.93;49.20
75489;HTU21D;64069;46.396;48.102;2023-07-24T05:27:48;33.81;49.34
75489;HTU21D;64069;46.396;48.102;2023-07-24T05:30:14;33.66;49.40
75489;HTU21D;64069;46.396;48.102;2023-07-24T05:32:41;33.57;49.75
75489;HTU21D;64069;46.396;48.102;2023-07-24T05:35:07;33.56;49.94
75489;HTU21D;64069;46.396;48.102;2023-07-24T05:37:33;33.73;49.77
75489;HTU21D;64069;46.396;48.102;2023-07-24T05:39:59;33.97;48.95
75489;HTU21D;64069;46.396;48.102;2023-07-24T05:42:25;33.94;48.74
75489;HTU21D;64069;46.396;48.102;2023-07-24T05:44:53;34.15;47.79
75489;HTU21D;64069;46.396;48.102;2023-07-24T05:47:19;34.45;46.92
75489;HTU21D;64069;46.396;48.102;2023-07-24T05:49:47;34.61;46.03
75489;HTU21D;64069;46.396;48.102;2023-07-24T05:52:13;34.34;46.25
75489;HTU21D;64069;46.396;48.102;2023-07-24T05:54:39;34.11;46.98
75489;HTU21D;64069;46.396;48.102;2023-07-24T05:57:05;34.04;47.34
75489;HTU21D;64069;46.396;48.102;2023-07-24T05:59:31;34.17;46.94
75489;HTU21D;64069;46.396;48.102;2023-07-24T06:01:57;34.38;46.19
75489;HTU21D;64069;46.396;48.102;2023-07-24T06:04:23;34.62;45.74
75489;HTU21D;64069;46.396;48.102;2023-07-24T06:06:49;34.79;45.31
75489;HTU21D;64069;46.396;48.102;2023-07-24T06:09:14;34.69;44.81
75489;HTU21D;64069;46.396;48.102;2023-07-24T06:11:40;34.38;45.66
75489;HTU21D;64069;46.396;48.102;2023-07-24T06:14:06;34.04;46.36
75489;HTU21D;64069;46.396;48.102;2023-07-24T06:16:32;33.79;46.58
75489;HTU21D;64069;46.396;48.102;2023-07-24T06:19:02;33.89;46.39
75489;HTU21D;64069;46.396;48.102;2023-07-24T06:21:28;34.12;46.07
75489;HTU21D;64069;46.396;48.102;2023-07-24T06:23:54;34.19;45.73
75489;HTU21D;64069;46.396;48.102;2023-07-24T06:26:21;34.10;45.05
75489;HTU21D;64069;46.396;48.102;2023-07-24T06:28:47;33.86;45.27
75489;HTU21D;64069;46.396;48.102;2023-07-24T06:31:13;33.76;45.19
75489;HTU21D;64069;46.396;48.102;2023-07-24T06:33:39;33.63;45.20
75489;HTU21D;64069;46.396;48.102;2023-07-24T06:36:09;33.80;45.11
75489;HTU21D;64069;46.396;48.102;2023-07-24T06:38:36;34.08;45.02
75489;HTU21D;64069;46.396;48.102;2023-07-24T06:41:02;34.38;44.64
75489;HTU21D;64069;46.396;48.102;2023-07-24T06:43:28;34.35;44.80
75489;HTU21D;64069;46.396;48.102;2023-07-24T06:45:54;34.12;45.33
75489;HTU21D;64069;46.396;48.102;2023-07-24T06:48:20;34.04;45.60
75489;HTU21D;64069;46.396;48.102;2023-07-24T06:50:46;34.18;45.36
75489;HTU21D;64069;46.396;48.102;2023-07-24T06:53:12;34.40;44.91
75489;HTU21D;64069;46.396;48.102;2023-07-24T06:55:38;34.41;44.80
75489;HTU21D;64069;46.396;48.102;2023-07-24T06:58:04;34.17;45.19
75489;HTU21D;64069;46.396;48.102;2023-07-24T07:00:30;34.01;45.59
75489;HTU21D;64069;46.396;48.102;2023-07-24T07:02:59;33.95;45.48
75489;HTU21D;64069;46.396;48.102;2023-07-24T07:05:25;34.05;45.42
75489;HTU21D;64069;46.396;48.102;2023-07-24T07:07:54;34.20;45.28
75489;HTU21D;64069;46.396;48.102;2023-07-24T07:10:20;34.35;45.06
75489;HTU21D;64069;46.396;48.102;2023-07-24T07:12:46;34.59;44.61
75489;HTU21D;64069;46.396;48.102;2023-07-24T07:15:14;34.57;44.33
75489;HTU21D;64069;46.396;48.102;2023-07-24T07:17:40;34.49;44.79
75489;HTU21D;64069;46.396;48.102;2023-07-24T07:20:06;34.70;44.68
75489;HTU21D;64069;46.396;48.102;2023-07-24T07:22:32;34.69;44.48
75489;HTU21D;64069;46.396;48.102;2023-07-24T07:24:58;34.39;44.91
75489;HTU21D;64069;46.396;48.102;2023-07-24T07:27:24;34.08;45.61
75489;HTU21D;64069;46.396;48.102;2023-07-24T07:29:54;33.78;46.33
75489;HTU21D;64069;46.396;48.102;2023-07-24T07:32:20;33.53;46.78
75489;HTU21D;64069;46.396;48.102;2023-07-24T07:34:46;33.29;47.58
75489;HTU21D;64069;46.396;48.102;2023-07-24T07:37:12;33.03;48.21
75489;HTU21D;64069;46.396;48.102;2023-07-24T07:39:38;32.70;49.21
75489;HTU21D;64069;46.396;48.102;2023-07-24T07:42:04;32.34;49.84
75489;HTU21D;64069;46.396;48.102;2023-07-24T07:44:30;32.09;50.69
75489;HTU21D;64069;46.396;48.102;2023-07-24T07:46:59;31.98;50.75
75489;HTU21D;64069;46.396;48.102;2023-07-24T07:49:25;31.93;51.33
75489;HTU21D;64069;46.396;48.102;2023-07-24T07:51:51;32.13;51.06
75489;HTU21D;64069;46.396;48.102;2023-07-24T07:54:17;32.60;50.50
75489;HTU21D;64069;46.396;48.102;2023-07-24T07:56:43;33.00;49.76
75489;HTU21D;64069;46.396;48.102;2023-07-24T07:59:09;33.15;49.58
75489;HTU21D;64069;46.396;48.102;2023-07-24T08:01:38;32.87;50.18
75489;HTU21D;64069;46.396;48.102;2023-07-24T08:04:07;32.10;51.59
75489;HTU21D;64069;46.396;48.102;2023-07-24T08:06:33;31.39;53.27
75489;HTU21D;64069;46.396;48.102;2023-07-24T08:08:59;30.97;54.33
75489;HTU21D;64069;46.396;48.102;2023-07-24T08:11:26;30.41;55.85
75489;HTU21D;64069;46.396;48.102;2023-07-24T08:13:55;30.00;57.38
75489;HTU21D;64069;46.396;48.102;2023-07-24T08:16:21;29.76;58.02
75489;HTU21D;64069;46.396;48.102;2023-07-24T08:18:48;29.36;58.94
75489;HTU21D;64069;46.396;48.102;2023-07-24T08:21:15;29.05;59.64
75489;HTU21D;64069;46.396;48.102;2023-07-24T08:23:42;28.87;60.25
75489;HTU21D;64069;46.396;48.102;2023-07-24T08:26:08;28.83;60.29
75489;HTU21D;64069;46.396;48.102;2023-07-24T08:28:37;28.87;60.35
75489;HTU21D;64069;46.396;48.102;2023-07-24T08:31:07;28.93;60.01
75489;HTU21D;64069;46.396;48.102;2023-07-24T08:33:33;29.06;59.52
75489;HTU21D;64069;46.396;48.102;2023-07-24T08:36:05;28.97;59.26
75489;HTU21D;64069;46.396;48.102;2023-07-24T08:38:32;28.90;59.27
75489;HTU21D;64069;46.396;48.102;2023-07-24T08:41:08;28.85;59.03
75489;HTU21D;64069;46.396;48.102;2023-07-24T08:43:35;28.79;58.84
75489;HTU21D;64069;46.396;48.102;2023-07-24T08:46:02;28.77;59.16
75489;HTU21D;64069;46.396;48.102;2023-07-24T08:48:33;28.71;59.45
75489;HTU21D;64069;46.396;48.102;2023-07-24T08:51:02;28.71;59.83
75489;HTU21D;64069;46.396;48.102;2023-07-24T08:53:33;28.74;60.00
75489;HTU21D;64069;46.396;48.102;2023-07-24T08:56:06;28.55;60.35
75489;HTU21D;64069;46.396;48.102;2023-07-24T08:58:34;28.42;61.03
75489;HTU21D;64069;46.396;48.102;2023-07-24T09:01:01;28.31;61.07
75489;HTU21D;64069;46.396;48.102;2023-07-24T09:03:35;28.32;61.18
75489;HTU21D;64069;46.396;48.102;2023-07-24T09:06:02;28.38;60.95
75489;HTU21D;64069;46.396;48.102;2023-07-24T09:08:30;28.49;61.05
75489;HTU21D;64069;46.396;48.102;2023-07-24T09:11:00;28.77;60.82
75489;HTU21D;64069;46.396;48.102;2023-07-24T09:13:27;29.13;59.93
75489;HTU21D;64069;46.396;48.102;2023-07-24T09:15:53;29.23;59.03
75489;HTU21D;64069;46.396;48.102;2023-07-24T09:18:21;29.04;59.30
75489;HTU21D;64069;46.396;48.102;2023-07-24T09:20:47;29.02;59.19
75489;HTU21D;64069;46.396;48.102;2023-07-24T09:23:14;28.90;58.93
75489;HTU21D;64069;46.396;48.102;2023-07-24T09:25:41;28.88;59.06
75489;HTU21D;64069;46.396;48.102;2023-07-24T09:28:15;28.93;58.77
75489;HTU21D;64069;46.396;48.102;2023-07-24T09:30:51;28.79;58.93
75489;HTU21D;64069;46.396;48.102;2023-07-24T09:33:18;28.71;58.86
75489;HTU21D;64069;46.396;48.102;2023-07-24T09:35:43;28.61;59.16
75489;HTU21D;64069;46.396;48.102;2023-07-24T09:38:11;28.65;58.96
75489;HTU21D;64069;46.396;48.102;2023-07-24T09:43:21;28.90;58.66
75489;HTU21D;64069;46.396;48.102;2023-07-24T09:45:52;29.06;58.49
75489;HTU21D;64069;46.396;48.102;2023-07-24T09:48:20;29.13;58.10
75489;HTU21D;64069;46.396;48.102;2023-07-24T09:50:48;29.15;57.94
75489;HTU21D;64069;46.396;48.102;2023-07-24T09:56:05;29.33;57.94
75489;HTU21D;64069;46.396;48.102;2023-07-24T09:58:36;29.39;58.26
75489;HTU21D;64069;46.396;48.102;2023-07-24T10:01:10;29.41;58.73
75489;HTU21D;64069;46.396;48.102;2023-07-24T10:03:38;29.39;59.96
75489;HTU21D;64069;46.396;48.102;2023-07-24T10:06:05;29.27;60.54
75489;HTU21D;64069;46.396;48.102;2023-07-24T10:08:31;29.14;61.25
75489;HTU21D;64069;46.396;48.102;2023-07-24T10:10:58;28.98;62.08
75489;HTU21D;64069;46.396;48.102;2023-07-24T10:13:26;28.83;62.79
75489;HTU21D;64069;46.396;48.102;2023-07-24T10:15:52;28.72;63.62
75489;HTU21D;64069;46.396;48.102;2023-07-24T10:18:28;28.56;64.52
75489;HTU21D;64069;46.396;48.102;2023-07-24T10:21:05;28.40;65.62
75489;HTU21D;64069;46.396;48.102;2023-07-24T10:23:34;28.27;66.11
75489;HTU21D;64069;46.396;48.102;2023-07-24T10:26:04;28.16;67.07
75489;HTU21D;64069;46.396;48.102;2023-07-24T10:28:33;28.09;67.27
75489;HTU21D;64069;46.396;48.102;2023-07-24T10:31:01;28.03;67.53
75489;HTU21D;64069;46.396;48.102;2023-07-24T10:33:30;27.97;68.26
75489;HTU21D;64069;46.396;48.102;2023-07-24T10:36:07;27.89;68.76
75489;HTU21D;64069;46.396;48.102;2023-07-24T10:38:41;27.87;69.28
75489;HTU21D;64069;46.396;48.102;2023-07-24T10:41:09;27.88;69.90
75489;HTU21D;64069;46.396;48.102;2023-07-24T10:43:47;27.88;70.34
75489;HTU21D;64069;46.396;48.102;2023-07-24T10:46:14;27.82;70.55
75489;HTU21D;64069;46.396;48.102;2023-07-24T10:48:44;27.72;70.98
75489;HTU21D;64069;46.396;48.102;2023-07-24T10:51:11;27.66;71.12
75489;HTU21D;64069;46.396;48.102;2023-07-24T10:53:46;27.63;71.54
75489;HTU21D;64069;46.396;48.102;2023-07-24T10:56:12;27.63;71.71
75489;HTU21D;64069;46.396;48.102;2023-07-24T10:58:38;27.61;71.85
75489;HTU21D;64069;46.396;48.102;2023-07-24T11:01:05;27.61;72.07
75489;HTU21D;64069;46.396;48.102;2023-07-24T11:03:31;27.60;71.96
75489;HTU21D;64069;46.396;48.102;2023-07-24T11:06:01;27.55;71.93
75489;HTU21D;64069;46.396;48.102;2023-07-24T11:08:29;27.55;71.80
75489;HTU21D;64069;46.396;48.102;2023-07-24T11:10:57;27.57;71.61
75489;HTU21D;64069;46.396;48.102;2023-07-24T11:13:25;27.61;71.38
75489;HTU21D;64069;46.396;48.102;2023-07-24T11:15:55;27.59;71.10
75489;HTU21D;64069;46.396;48.102;2023-07-24T11:18:21;27.58;70.94
75489;HTU21D;64069;46.396;48.102;2023-07-24T11:20:50;27.53;71.12
75489;HTU21D;64069;46.396;48.102;2023-07-24T11:23:17;27.47;71.58
75489;HTU21D;64069;46.396;48.102;2023-07-24T11:25:44;27.43;71.80
75489;HTU21D;64069;46.396;48.102;2023-07-24T11:28:12;27.40;72.00
75489;HTU21D;64069;46.396;48.102;2023-07-24T11:30:38;27.38;72.21
75489;HTU21D;64069;46.396;48.102;2023-07-24T11:33:10;27.36;72.51
75489;HTU21D;64069;46.396;48.102;2023-07-24T11:35:38;27.36;72.76
75489;HTU21D;64069;46.396;48.102;2023-07-24T11:38:10;27.37;73.06
75489;HTU21D;64069;46.396;48.102;2023-07-24T11:40:41;27.38;73.44
75489;HTU21D;64069;46.396;48.102;2023-07-24T11:43:18;27.35;73.54
75489;HTU21D;64069;46.396;48.102;2023-07-24T11:45:47;27.28;73.73
75489;HTU21D;64069;46.396;48.102;2023-07-24T11:48:14;27.26;74.07
75489;HTU21D;64069;46.396;48.102;2023-07-24T11:50:48;27.26;74.47
75489;HTU21D;64069;46.396;48.102;2023-07-24T11:53:25;27.23;74.97
75489;HTU21D;64069;46.396;48.102;2023-07-24T11:55:52;27.21;75.26
75489;HTU21D;64069;46.396;48.102;2023-07-24T11:58:19;27.23;75.42
75489;HTU21D;64069;46.396;48.102;2023-07-24T12:00:47;27.17;75.44
75489;HTU21D;64069;46.396;48.102;2023-07-24T12:03:19;27.12;75.67
75489;HTU21D;64069;46.396;48.102;2023-07-24T12:05:48;27.06;75.63
75489;HTU21D;64069;46.396;48.102;2023-07-24T12:08:14;26.96;75.73
75489;HTU21D;64069;46.396;48.102;2023-07-24T12:10:43;26.92;75.65
75489;HTU21D;64069;46.396;48.102;2023-07-24T12:13:09;26.85;75.67
75489;HTU21D;64069;46.396;48.102;2023-07-24T12:15:39;26.85;75.61
75489;HTU21D;64069;46.396;48.102;2023-07-24T12:18:06;26.84;75.75
75489;HTU21D;64069;46.396;48.102;2023-07-24T12:20:35;26.85;75.84
75489;HTU21D;64069;46.396;48.102;2023-07-24T12:23:01;26.87;76.00
75489;HTU21D;64069;46.396;48.102;2023-07-24T12:25:27;26.89;76.21
75489;HTU21D;64069;46.396;48.102;2023-07-24T12:27:53;26.86;76.35
75489;HTU21D;64069;46.396;48.102;2023-07-24T12:30:19;26.84;76.55
75489;HTU21D;64069;46.396;48.102;2023-07-24T12:32:45;26.78;76.91
75489;HTU21D;64069;46.396;48.102;2023-07-24T12:35:11;26.76;77.24
75489;HTU21D;64069;46.396;48.102;2023-07-24T12:37:37;26.75;77.44
75489;HTU21D;64069;46.396;48.102;2023-07-24T12:40:09;26.77;77.47
75489;HTU21D;64069;46.396;48.102;2023-07-24T12:42:35;26.76;77.59
75489;HTU21D;64069;46.396;48.102;2023-07-24T12:45:01;26.71;77.62
75489;HTU21D;64069;46.396;48.102;2023-07-24T12:47:33;26.66;77.79
75489;HTU21D;64069;46.396;48.102;2023-07-24T12:50:00;26.63;77.67
75489;HTU21D;64069;46.396;48.102;2023-07-24T12:52:29;26.58;77.61
75489;HTU21D;64069;46.396;48.102;2023-07-24T12:54:56;26.55;77.13
75489;HTU21D;64069;46.396;48.102;2023-07-24T12:57:28;26.47;76.66
75489;HTU21D;64069;46.396;48.102;2023-07-24T12:59:54;26.39;76.31
75489;HTU21D;64069;46.396;48.102;2023-07-24T13:02:20;26.36;76.20
75489;HTU21D;64069;46.396;48.102;2023-07-24T13:04:46;26.33;75.80
75489;HTU21D;64069;46.396;48.102;2023-07-24T13:07:12;26.27;75.69
75489;HTU21D;64069;46.396;48.102;2023-07-24T13:09:38;26.25;75.50
75489;HTU21D;64069;46.396;48.102;2023-07-24T13:12:04;26.30;75.40
75489;HTU21D;64069;46.396;48.102;2023-07-24T13:14:30;26.28;75.20
75489;HTU21D;64069;46.396;48.102;2023-07-24T13:16:56;26.30;75.01
75489;HTU21D;64069;46.396;48.102;2023-07-24T13:19:22;26.30;74.77
75489;HTU21D;64069;46.396;48.102;2023-07-24T13:21:48;26.30;74.63
75489;HTU21D;64069;46.396;48.102;2023-07-24T13:24:14;26.28;74.37
75489;HTU21D;64069;46.396;48.102;2023-07-24T13:26:40;26.33;74.20
75489;HTU21D;64069;46.396;48.102;2023-07-24T13:29:06;26.37;73.86
75489;HTU21D;64069;46.396;48.102;2023-07-24T13:31:32;26.41;73.75
75489;HTU21D;64069;46.396;48.102;2023-07-24T13:34:01;26.43;73.51
75489;HTU21D;64069;46.396;48.102;2023-07-24T13:36:27;26.43;73.35
75489;HTU21D;64069;46.396;48.102;2023-07-24T13:38:53;26.45;73.21
75489;HTU21D;64069;46.396;48.102;2023-07-24T13:41:23;26.46;73.09
75489;HTU21D;64069;46.396;48.102;2023-07-24T13:43:49;26.49;73.02
75489;HTU21D;64069;46.396;48.102;2023-07-24T13:46:18;26.52;72.58
75489;HTU21D;64069;46.396;48.102;2023-07-24T13:48:44;26.50;72.29
75489;HTU21D;64069;46.396;48.102;2023-07-24T13:51:10;26.53;71.91
75489;HTU21D;64069;46.396;48.102;2023-07-24T13:53:36;26.54;71.48
75489;HTU21D;64069;46.396;48.102;2023-07-24T13:56:03;26.60;71.16
75489;HTU21D;64069;46.396;48.102;2023-07-24T13:58:29;26.66;70.84
75489;HTU21D;64069;46.396;48.102;2023-07-24T14:00:54;26.73;70.61
75489;HTU21D;64069;46.396;48.102;2023-07-24T14:03:20;26.81;70.27
75489;HTU21D;64069;46.396;48.102;2023-07-24T14:05:46;26.85;70.07
75489;HTU21D;64069;46.396;48.102;2023-07-24T14:08:12;26.86;69.98
75489;HTU21D;64069;46.396;48.102;2023-07-24T14:10:38;26.90;69.79
75489;HTU21D;64069;46.396;48.102;2023-07-24T14:13:04;26.90;69.56
75489;HTU21D;64069;46.396;48.102;2023-07-24T14:15:30;26.93;69.42
75489;HTU21D;64069;46.396;48.102;2023-07-24T14:17:56;26.96;69.00
75489;HTU21D;64069;46.396;48.102;2023-07-24T14:20:22;26.94;68.93
75489;HTU21D;64069;46.396;48.102;2023-07-24T14:22:48;26.96;68.81
75489;HTU21D;64069;46.396;48.102;2023-07-24T14:25:13;26.94;68.79
75489;HTU21D;64069;46.396;48.102;2023-07-24T14:27:39;26.93;68.87
75489;HTU21D;64069;46.396;48.102;2023-07-24T14:30:10;26.91;69.00
75489;HTU21D;64069;46.396;48.102;2023-07-24T14:32:37;26.93;68.85
75489;HTU21D;64069;46.396;48.102;2023-07-24T14:35:06;26.92;68.62
75489;HTU21D;64069;46.396;48.102;2023-07-24T14:37:32;26.89;68.63
75489;HTU21D;64069;46.396;48.102;2023-07-24T14:39:58;26.86;68.76
75489;HTU21D;64069;46.396;48.102;2023-07-24T14:42:24;26.78;68.98
75489;HTU21D;64069;46.396;48.102;2023-07-24T14:44:50;26.66;69.35
75489;HTU21D;64069;46.396;48.102;2023-07-24T14:47:16;26.55;69.69
75489;HTU21D;64069;46.396;48.102;2023-07-24T14:49:45;26.50;70.02
75489;HTU21D;64069;46.396;48.102;2023-07-24T14:52:11;26.43;70.29
75489;HTU21D;64069;46.396;48.102;2023-07-24T14:54:40;26.37;70.59
75489;HTU21D;64069;46.396;48.102;2023-07-24T14:57:06;26.31;70.84
75489;HTU21D;64069;46.396;48.102;2023-07-24T14:59:32;26.26;70.87
75489;HTU21D;64069;46.396;48.102;2023-07-24T15:01:57;26.23;70.94
75489;HTU21D;64069;46.396;48.102;2023-07-24T15:04:30;26.19;71.16
75489;HTU21D;64069;46.396;48.102;2023-07-24T15:06:57;26.17;71.46
75489;HTU21D;64069;46.396;48.102;2023-07-24T15:09:26;26.12;71.67
75489;HTU21D;64069;46.396;48.102;2023-07-24T15:11:51;26.06;71.93
75489;HTU21D;64069;46.396;48.102;2023-07-24T15:16:51;25.89;72.74
75489;HTU21D;64069;46.396;48.102;2023-07-24T15:19:17;25.83;73.15
75489;HTU21D;64069;46.396;48.102;2023-07-24T15:21:43;25.79;73.47